Monday, July 28, 2014
08:24 UTC
  |  Log In   |  Register Free
Airport Search:

New Richmond Regional Airport
(KRNH)

New Richmond Regional Airport Diagram
No Airport Diagram Available

FAA data valid effective July 24, 2014 until September 18, 2014 (unless otherwise noted).

 
 
 
 
 
 
 
 
 
 
 
 
 
 

Current Aviation Weather for New Richmond Regional Airport (KRNH)

The most recent METAR observation for KRNH was updated at: 0735 UTC
METAR Summary (Translated METAR)
KRNH
280735Z AUTO 00000KT 10SM BKN060 14/13 A3014 RMK AO2 T01400133
KOEO
(11.6 nm NW from KRNH)
280735Z AUTO 00000KT 10SM OVC060 14/14 A3016 RMK AO2 T01430143
TAF Summary (Translated TAF)
KRNH
280527Z 2806/2906 33004KT P6SM SCT045 FM281000 35002KT 5SM BR SKC FM281200 34005KT P6SM FEW040 FM281500 33009KT P6SM SCT045 FM290100 34004KT P6SM SKC
  Airport Weather Conditions for KRNH

 Current Weather at RNH
57° F
Mostly Cloudy
North winds at 0.0 mph
RNH NOAA Radar

Pressure: 30.14 in
Humidity: 96%
Wind: Calm
Dew Point: 55.9°F
Visibility: 10.00 mi


Airport Weather Forecast for KRNH

Translated METAR and TAF for KRNH
Translated METAR for KRNH (0817 UTC 28 July 2014)
found at http://aviationweather.gov/adds/metars/
 
METAR text: KRNH 280755Z AUTO 31003KT 10SM BKN060 14/13 A3014 RMK AO2 T01370132
Conditions at: KRNH (NEW RICHMOND MUN, WI, US) observed 0755 UTC 28 July 2014
Temperature: 13.7°C (57°F)
Dewpoint: 13.2°C (56°F) [RH = 97%]
Pressure (altimeter): 30.14 inches Hg (1020.7 mb)
Winds: from the NW (310 degrees) at 3 MPH (3 knots; 1.6 m/s)
Visibility: 10 or more miles (16+ km)
Ceiling: 6000 feet AGL
Clouds: broken clouds at 6000 feet AGL
Weather: automated observation with no human augmentation;
there may or may not be significant weather present at this time
Translated TAF for KRNH
Forecast for: KRNH (NEW RICHMOND MUN, WI, US)
TAF Text: KRNH 280527Z 2806/2906 33004KT P6SM SCT045
Forecast period: 0600 to 1000 UTC 28 July 2014
Forecast type: FROM: standard forecast or significant change
Winds: from the NNW (330 degrees) at 5 MPH (4 knots; 2.1 m/s)
Visibility: 6 or more miles (10+ km)
Clouds: scattered clouds at 4500 feet AGL
Weather: no significant weather forecast for this period
TAF Text: FM281000 35002KT 5SM BR SKC
Forecast period: 1000 to 1200 UTC 28 July 2014
Forecast type: FROM: standard forecast or significant change
Winds: from the N (350 degrees) at 2 MPH (2 knots; 1.0 m/s)
Visibility: 5 miles (8 km)
Clouds: clear skies
Weather: BR  (mist)
TAF Text: FM281200 34005KT P6SM FEW040
Forecast period: 1200 to 1500 UTC 28 July 2014
Forecast type: FROM: standard forecast or significant change
Winds: from the NNW (340 degrees) at 6 MPH (5 knots; 2.6 m/s)
Visibility: 6 or more miles (10+ km)
Clouds: few clouds at 4000 feet AGL
Weather: no significant weather forecast for this period
TAF Text: FM281500 33009KT P6SM SCT045
Forecast period: 1500 UTC 28 July 2014 to 0100 UTC 29 July 2014
Forecast type: FROM: standard forecast or significant change
Winds: from the NNW (330 degrees) at 10 MPH (9 knots; 4.7 m/s)
Visibility: 6 or more miles (10+ km)
Clouds: scattered clouds at 4500 feet AGL
Weather: no significant weather forecast for this period
TAF Text: FM290100 34004KT P6SM SKC
Forecast period: 0100 to 0600 UTC 29 July 2014
Forecast type: FROM: standard forecast or significant change
Winds: from the NNW (340 degrees) at 5 MPH (4 knots; 2.1 m/s)
Visibility: 6 or more miles (10+ km)
Clouds: clear skies
Weather: no significant weather forecast for this period

Find All Airport Services Find A Hotel Find A Rental Car Find A Golf Course Find A Restaurant $100 Hamburger



FBO's on the Field
FBO Company Facility Photos Services Transportation Aviation Fuel Prices: Prices include tax
Catering Weather Repair Courtesy Rental Type 100LL JetA JetA+ MOGAS 8087
 
Griggs Aviation

This FBO has not yet been rated
FS:Independent
Last Updated: Jul-06
Login to update fuel prices
SS:
Contact Griggs AviationMore FBO Information
 
Add another FBO Facility Photos Catering Weather Repair Courtesy Rental Type 100LL JetA JetA+ MOGAS 8087
Services Transportation Aviation Fuel Prices: Prices include tax


GlobalAir.com Airport Resource Center model-print
model-print
model-print
model-print